createdAt,value
2022-11-30T00:01:17.848Z,8.40
2022-11-30T00:03:44.931Z,8.30
2022-11-30T00:06:14.954Z,8.30
2022-11-30T00:08:42.089Z,8.30
2022-11-30T00:11:13.985Z,8.30
2022-11-30T00:13:41.061Z,8.30
2022-11-30T00:16:08.480Z,8.40
2022-11-30T00:18:35.717Z,8.40
2022-11-30T00:21:04.161Z,8.40
2022-11-30T00:23:35.717Z,8.40
2022-11-30T00:26:08.757Z,8.40
2022-11-30T00:28:36.587Z,8.40
2022-11-30T00:31:07.039Z,8.40
2022-11-30T00:33:35.694Z,8.40
2022-11-30T00:36:14.315Z,8.40
2022-11-30T00:38:41.497Z,8.50
2022-11-30T00:41:08.598Z,8.40
2022-11-30T00:43:35.450Z,8.50
2022-11-30T00:46:02.556Z,8.40
2022-11-30T00:48:29.431Z,8.50
2022-11-30T00:50:56.347Z,8.50
2022-11-30T00:53:23.351Z,8.60
2022-11-30T00:55:50.399Z,8.50
2022-11-30T00:58:17.512Z,8.50
2022-11-30T01:00:45.317Z,8.50
2022-11-30T01:03:12.829Z,8.50
2022-11-30T01:05:40.338Z,8.60
2022-11-30T01:08:09.451Z,8.50
2022-11-30T01:10:37.995Z,8.50
2022-11-30T01:13:05.759Z,8.50
2022-11-30T01:15:37.661Z,8.40
2022-11-30T01:18:05.017Z,8.60
2022-11-30T01:20:31.939Z,8.60
2022-11-30T01:22:58.942Z,8.60
2022-11-30T01:25:25.920Z,8.60
2022-11-30T01:27:53.092Z,8.60
2022-11-30T01:30:20.033Z,8.70
2022-11-30T01:32:46.897Z,8.70
2022-11-30T01:35:13.876Z,8.70
2022-11-30T01:37:40.759Z,8.60
2022-11-30T01:40:08.257Z,8.60
2022-11-30T01:42:37.856Z,8.60
2022-11-30T01:45:07.379Z,8.60
2022-11-30T01:47:39.324Z,8.60
2022-11-30T01:50:08.653Z,8.50
2022-11-30T01:52:50.688Z,8.50
2022-11-30T01:55:37.903Z,8.50
2022-11-30T01:58:09.648Z,8.50
2022-11-30T02:00:36.460Z,8.50
2022-11-30T02:03:28.514Z,8.50
2022-11-30T02:05:55.480Z,8.60
2022-11-30T02:08:22.956Z,8.60
2022-11-30T02:10:55.510Z,8.60
2022-11-30T02:13:34.327Z,8.60
2022-11-30T02:16:22.468Z,8.70
2022-11-30T02:19:28.739Z,8.70
2022-11-30T02:22:01.312Z,8.70
2022-11-30T02:24:43.344Z,8.70
2022-11-30T02:27:38.102Z,8.60
2022-11-30T02:30:13.596Z,8.60
2022-11-30T02:32:48.831Z,8.50
2022-11-30T02:35:20.315Z,8.50
2022-11-30T02:37:48.774Z,8.50
2022-11-30T02:40:19.401Z,8.40
2022-11-30T02:42:47.561Z,8.40
2022-11-30T02:45:14.723Z,8.40
2022-11-30T02:47:50.613Z,8.30
2022-11-30T02:50:33.324Z,8.30
2022-11-30T02:53:00.559Z,8.30
2022-11-30T02:55:28.945Z,8.30
2022-11-30T02:57:55.902Z,8.30
2022-11-30T03:00:22.824Z,8.30
2022-11-30T03:02:49.927Z,8.30
2022-11-30T03:05:16.836Z,8.40
2022-11-30T03:07:43.793Z,8.40
2022-11-30T03:10:10.895Z,8.50
2022-11-30T03:12:38.141Z,8.50
2022-11-30T03:15:05.917Z,8.50
2022-11-30T03:17:33.035Z,8.50
2022-11-30T03:20:00.209Z,8.60
2022-11-30T03:22:27.134Z,8.60
2022-11-30T03:24:53.951Z,8.50
2022-11-30T03:27:21.018Z,8.50
2022-11-30T03:29:47.833Z,8.60
2022-11-30T03:32:14.691Z,8.60
2022-11-30T03:34:41.550Z,8.60
2022-11-30T03:37:08.382Z,8.50
2022-11-30T03:39:35.276Z,8.50
2022-11-30T03:42:02.123Z,8.50
2022-11-30T03:44:29.898Z,8.50
2022-11-30T03:46:56.823Z,8.50
2022-11-30T03:49:23.643Z,8.50
2022-11-30T03:51:50.423Z,8.40
2022-11-30T03:54:17.269Z,8.40
2022-11-30T03:56:45.218Z,8.40
2022-11-30T03:59:12.035Z,8.40
2022-11-30T04:01:41.066Z,8.40
2022-11-30T04:04:07.985Z,8.40
2022-11-30T04:06:34.903Z,8.30
2022-11-30T04:09:01.824Z,8.30
2022-11-30T04:11:28.738Z,8.40
2022-11-30T04:13:55.573Z,8.40
2022-11-30T04:16:22.884Z,8.40
2022-11-30T04:18:49.874Z,8.50
2022-11-30T04:21:16.691Z,8.50
2022-11-30T04:23:43.535Z,8.40
2022-11-30T04:26:13.194Z,8.40
2022-11-30T04:28:40.423Z,8.40
2022-11-30T04:31:07.497Z,8.40
2022-11-30T04:33:34.412Z,8.40
2022-11-30T04:36:03.936Z,8.40
2022-11-30T04:38:31.197Z,8.40
2022-11-30T04:40:58.129Z,8.40
2022-11-30T04:43:25.233Z,8.30
2022-11-30T04:45:52.174Z,8.30
2022-11-30T04:48:19.370Z,8.30
2022-11-30T04:50:46.286Z,8.30
2022-11-30T04:53:13.201Z,8.40
2022-11-30T04:55:40.278Z,8.30
2022-11-30T04:58:07.611Z,8.40
2022-11-30T05:00:34.993Z,8.40
2022-11-30T05:03:02.165Z,8.30
2022-11-30T05:05:29.171Z,8.30
2022-11-30T05:07:58.038Z,8.30
2022-11-30T05:10:25.864Z,8.30
2022-11-30T05:12:52.949Z,8.30
2022-11-30T05:15:20.233Z,8.20
2022-11-30T05:17:47.058Z,8.20
2022-11-30T05:20:14.015Z,8.20
2022-11-30T05:22:41.100Z,8.10
2022-11-30T05:25:09.307Z,8.10
2022-11-30T05:27:36.641Z,8.10
2022-11-30T05:30:04.867Z,8.10
2022-11-30T05:32:31.679Z,8.10
2022-11-30T05:34:58.903Z,8.20
2022-11-30T05:37:25.943Z,8.20
2022-11-30T05:39:52.793Z,8.20
2022-11-30T05:42:19.595Z,8.30
2022-11-30T05:44:47.827Z,8.30
2022-11-30T05:47:16.351Z,8.30
2022-11-30T05:49:43.398Z,8.30
2022-11-30T05:52:10.278Z,8.20
2022-11-30T05:54:37.229Z,8.20
2022-11-30T05:57:05.411Z,8.30
2022-11-30T05:59:32.288Z,8.20
2022-11-30T06:01:59.456Z,8.20
2022-11-30T06:04:26.500Z,8.20
2022-11-30T06:06:55.770Z,8.20
2022-11-30T06:09:23.303Z,8.20
2022-11-30T06:11:50.282Z,8.20
2022-11-30T06:14:17.566Z,8.30
2022-11-30T06:16:46.806Z,8.30
2022-11-30T06:19:13.742Z,8.20
2022-11-30T06:21:40.562Z,8.10
2022-11-30T06:24:07.676Z,8.10
2022-11-30T06:26:34.503Z,8.10
2022-11-30T06:29:01.386Z,8.10
2022-11-30T06:31:28.286Z,8.00
2022-11-30T06:33:58.711Z,8.10
2022-11-30T06:36:26.569Z,8.10
2022-11-30T06:38:58.861Z,8.20
2022-11-30T06:41:26.275Z,8.20
2022-11-30T06:43:53.366Z,8.10
2022-11-30T06:46:21.327Z,8.10
2022-11-30T06:48:52.372Z,8.00
2022-11-30T06:51:19.664Z,8.00
2022-11-30T06:53:46.884Z,8.10
2022-11-30T06:56:13.881Z,8.00
2022-11-30T06:58:41.629Z,7.90
2022-11-30T07:01:10.849Z,7.80
2022-11-30T07:03:38.342Z,7.90
2022-11-30T07:06:13.352Z,8.00
2022-11-30T07:08:41.102Z,7.90
2022-11-30T07:11:09.201Z,7.90
2022-11-30T07:13:36.598Z,7.90
2022-11-30T07:16:08.444Z,7.90
2022-11-30T07:18:35.378Z,8.00
2022-11-30T07:21:04.108Z,8.00
2022-11-30T07:23:55.907Z,8.00
2022-11-30T07:26:25.652Z,8.10
2022-11-30T07:28:58.648Z,8.00
2022-11-30T07:31:30.099Z,8.10
2022-11-30T07:33:58.558Z,8.10
2022-11-30T07:36:27.271Z,8.10
2022-11-30T07:38:54.089Z,8.00
2022-11-30T07:41:20.942Z,8.00
2022-11-30T07:43:47.805Z,8.00
2022-11-30T07:46:16.095Z,8.00
2022-11-30T07:48:44.532Z,8.00
2022-11-30T07:51:19.852Z,8.00
2022-11-30T07:53:47.345Z,8.00
2022-11-30T07:56:17.432Z,8.00
2022-11-30T07:58:44.654Z,8.00
2022-11-30T08:01:14.857Z,7.90
2022-11-30T08:03:42.530Z,7.90
2022-11-30T08:06:15.413Z,7.90
2022-11-30T08:08:45.854Z,7.90
2022-11-30T08:11:18.134Z,7.90
2022-11-30T08:13:45.013Z,7.80
2022-11-30T08:16:17.965Z,7.80
2022-11-30T08:18:44.989Z,7.90
2022-11-30T08:21:15.045Z,7.90
2022-11-30T08:23:51.223Z,8.00
2022-11-30T08:26:22.241Z,8.00
2022-11-30T08:28:50.472Z,8.00
2022-11-30T08:31:28.952Z,8.10
2022-11-30T08:34:03.981Z,8.00
2022-11-30T08:36:31.580Z,8.10
2022-11-30T08:38:59.592Z,8.10
2022-11-30T08:41:27.199Z,8.20
2022-11-30T08:43:54.625Z,8.20
2022-11-30T08:49:26.049Z,8.10
2022-11-30T08:54:46.588Z,8.20
2022-11-30T08:57:19.468Z,8.20
2022-11-30T08:59:46.817Z,8.20
2022-11-30T09:02:17.707Z,8.20
2022-11-30T09:04:45.681Z,8.20
2022-11-30T09:07:12.746Z,8.30
2022-11-30T09:09:39.609Z,8.20
2022-11-30T09:12:07.577Z,8.20
2022-11-30T09:14:34.443Z,8.20
2022-11-30T09:17:01.324Z,8.10
2022-11-30T09:19:28.222Z,8.10
2022-11-30T09:21:55.170Z,8.20
2022-11-30T09:24:22.231Z,8.20
2022-11-30T09:26:49.076Z,8.30
2022-11-30T09:29:15.906Z,8.50
2022-11-30T09:31:42.779Z,8.40
2022-11-30T09:34:11.978Z,8.50
2022-11-30T09:36:38.836Z,8.40
2022-11-30T09:39:06.557Z,8.40
2022-11-30T09:42:13.871Z,8.40
2022-11-30T09:44:51.872Z,8.50
2022-11-30T09:47:45.488Z,8.50
2022-11-30T09:50:19.186Z,8.50
2022-11-30T09:53:02.630Z,8.40
2022-11-30T09:55:41.843Z,8.30
2022-11-30T09:58:32.370Z,8.30
2022-11-30T10:01:02.448Z,8.30
2022-11-30T10:03:33.926Z,8.30
2022-11-30T10:06:14.455Z,8.30
2022-11-30T10:08:59.402Z,8.30
2022-11-30T10:11:40.301Z,8.40
2022-11-30T10:14:16.187Z,8.30
2022-11-30T10:16:46.044Z,8.30
2022-11-30T10:20:00.656Z,8.20
2022-11-30T10:22:59.814Z,8.30
2022-11-30T10:25:42.597Z,8.20
2022-11-30T10:28:47.068Z,8.30
2022-11-30T10:31:13.882Z,8.30
2022-11-30T10:33:46.671Z,8.30
2022-11-30T10:36:21.602Z,8.30
2022-11-30T10:38:53.130Z,8.30
2022-11-30T10:41:58.968Z,8.30
2022-11-30T10:44:31.266Z,8.30
2022-11-30T10:47:36.696Z,8.30
2022-11-30T10:50:07.660Z,8.40
2022-11-30T10:52:43.038Z,8.30
2022-11-30T10:55:16.732Z,8.40
2022-11-30T10:57:45.561Z,8.40
2022-11-30T11:00:15.000Z,8.40
2022-11-30T11:02:43.136Z,8.40
2022-11-30T11:05:35.701Z,8.20
2022-11-30T11:08:18.292Z,8.20
2022-11-30T11:10:51.568Z,8.20
2022-11-30T11:13:35.255Z,8.10
2022-11-30T11:16:03.837Z,8.20
2022-11-30T11:18:33.323Z,8.10
2022-11-30T11:21:06.005Z,8.10
2022-11-30T11:23:41.491Z,8.00
2022-11-30T11:26:20.706Z,8.00
2022-11-30T11:28:50.236Z,8.00
2022-11-30T11:31:39.236Z,7.90
2022-11-30T11:34:24.494Z,7.90
2022-11-30T11:37:31.005Z,8.00
2022-11-30T11:40:08.904Z,8.10
2022-11-30T11:42:47.602Z,8.10
2022-11-30T11:45:22.788Z,8.10
2022-11-30T11:48:29.192Z,8.00
2022-11-30T11:51:14.593Z,8.20
2022-11-30T11:53:54.233Z,8.10
2022-11-30T11:56:31.638Z,8.10
2022-11-30T11:58:58.451Z,8.10
2022-11-30T12:01:40.998Z,8.10
2022-11-30T12:04:20.135Z,8.30
2022-11-30T12:06:50.088Z,8.30
2022-11-30T12:09:25.300Z,8.40
2022-11-30T12:11:52.227Z,8.40
2022-11-30T12:14:19.985Z,8.30
2022-11-30T12:17:23.957Z,8.30
2022-11-30T12:19:56.599Z,8.30
2022-11-30T12:22:41.488Z,8.30
2022-11-30T12:25:23.650Z,8.40
2022-11-30T12:28:17.136Z,8.50
2022-11-30T12:31:04.437Z,8.50
2022-11-30T12:33:58.900Z,8.40
2022-11-30T12:36:48.066Z,8.40
2022-11-30T12:39:52.259Z,8.50
2022-11-30T12:42:34.199Z,8.40
2022-11-30T12:45:24.399Z,8.40
2022-11-30T12:47:57.404Z,8.30
2022-11-30T12:50:56.870Z,8.40
2022-11-30T12:53:47.319Z,8.30
2022-11-30T12:56:45.993Z,8.20
2022-11-30T12:59:28.043Z,8.20
2022-11-30T13:02:36.357Z,8.20
2022-11-30T13:05:13.933Z,8.30
2022-11-30T13:07:58.492Z,8.30
2022-11-30T13:10:30.719Z,8.40
2022-11-30T13:13:00.243Z,8.30
2022-11-30T13:15:32.646Z,8.30
2022-11-30T13:18:01.939Z,8.30
2022-11-30T13:20:31.733Z,8.30
2022-11-30T13:23:18.459Z,8.30
2022-11-30T13:26:08.612Z,8.30
2022-11-30T13:28:42.357Z,8.20
2022-11-30T13:31:20.888Z,8.10
2022-11-30T13:33:54.777Z,8.00
2022-11-30T13:36:41.997Z,7.90
2022-11-30T13:39:15.138Z,7.80
2022-11-30T13:41:44.834Z,7.80
2022-11-30T13:44:32.416Z,7.80
2022-11-30T13:47:01.711Z,7.90
2022-11-30T13:49:34.573Z,8.00
2022-11-30T13:54:58.203Z,8.00
2022-11-30T13:57:24.982Z,8.00
2022-11-30T13:59:56.641Z,8.00
2022-11-30T14:02:32.809Z,8.00
2022-11-30T14:05:36.086Z,8.00
2022-11-30T14:08:02.942Z,8.00
2022-11-30T14:10:42.412Z,8.00
2022-11-30T14:13:09.747Z,8.00
2022-11-30T14:15:39.642Z,8.00
2022-11-30T14:18:09.516Z,8.10
2022-11-30T14:20:45.367Z,8.00
2022-11-30T14:23:26.777Z,8.00
2022-11-30T14:25:57.549Z,8.00
2022-11-30T14:28:43.866Z,8.00
2022-11-30T14:31:17.786Z,8.00
2022-11-30T14:33:55.711Z,8.00
2022-11-30T14:36:27.142Z,8.00
2022-11-30T14:38:54.026Z,7.90
2022-11-30T14:41:28.973Z,7.90
2022-11-30T14:44:04.947Z,7.90
2022-11-30T14:46:35.083Z,7.90
2022-11-30T14:49:19.419Z,7.90
2022-11-30T14:51:50.308Z,7.90
2022-11-30T14:54:23.266Z,7.90
2022-11-30T14:56:52.906Z,7.90
2022-11-30T14:59:51.911Z,7.80
2022-11-30T15:02:34.299Z,7.80
2022-11-30T15:05:02.173Z,7.80
2022-11-30T15:07:29.995Z,7.80
2022-11-30T15:10:05.635Z,7.70
2022-11-30T15:12:34.385Z,7.70
2022-11-30T15:15:14.710Z,7.70
2022-11-30T15:17:46.713Z,7.70
2022-11-30T15:20:19.527Z,7.70
2022-11-30T15:22:46.393Z,7.80
2022-11-30T15:25:13.533Z,7.80
2022-11-30T15:27:53.398Z,7.80
2022-11-30T15:30:20.978Z,7.80
2022-11-30T15:32:52.361Z,7.80
2022-11-30T15:35:22.623Z,7.70
2022-11-30T15:37:50.250Z,7.60
2022-11-30T15:40:30.782Z,7.60
2022-11-30T15:42:58.763Z,7.70
2022-11-30T15:45:36.235Z,7.60
2022-11-30T15:48:21.469Z,7.60
2022-11-30T15:50:48.324Z,7.60
2022-11-30T15:53:51.095Z,7.60
2022-11-30T15:56:27.023Z,7.60
2022-11-30T15:59:29.518Z,7.40
2022-11-30T16:02:02.672Z,7.40
2022-11-30T16:04:58.704Z,7.30
2022-11-30T16:07:29.786Z,7.50
2022-11-30T16:10:16.715Z,7.50
2022-11-30T16:12:44.678Z,7.60
2022-11-30T16:15:22.013Z,7.60
2022-11-30T16:17:49.446Z,7.70
2022-11-30T16:20:17.021Z,7.70
2022-11-30T16:22:48.135Z,7.70
2022-11-30T16:25:19.851Z,7.70
2022-11-30T16:27:48.132Z,7.70
2022-11-30T16:30:18.211Z,7.80
2022-11-30T16:32:45.350Z,7.70
2022-11-30T16:35:25.036Z,7.60
2022-11-30T16:37:52.036Z,7.70
2022-11-30T16:40:21.159Z,7.70
2022-11-30T16:42:51.778Z,7.70
2022-11-30T16:45:24.546Z,7.70
2022-11-30T16:47:52.474Z,7.70
2022-11-30T16:50:20.157Z,7.70
2022-11-30T16:52:47.254Z,7.70
2022-11-30T16:55:17.239Z,7.70
2022-11-30T16:57:46.525Z,7.60
2022-11-30T17:00:16.690Z,7.60
2022-11-30T17:02:49.950Z,7.60
2022-11-30T17:05:16.949Z,7.70
2022-11-30T17:07:44.047Z,7.70
2022-11-30T17:10:11.670Z,7.70
2022-11-30T17:12:39.062Z,7.70
2022-11-30T17:15:06.794Z,7.80
2022-11-30T17:17:33.966Z,7.70
2022-11-30T17:20:00.811Z,7.80
2022-11-30T17:22:27.632Z,7.80
2022-11-30T17:24:54.745Z,7.80
2022-11-30T17:27:21.593Z,7.80
2022-11-30T17:29:48.472Z,7.70
2022-11-30T17:32:15.308Z,7.80
2022-11-30T17:34:42.199Z,7.70
2022-11-30T17:37:10.448Z,7.80
2022-11-30T17:39:37.538Z,7.80
2022-11-30T17:42:04.645Z,7.80
2022-11-30T17:44:31.519Z,7.70
2022-11-30T17:46:58.401Z,7.70
2022-11-30T17:49:25.212Z,7.70
2022-11-30T17:51:52.074Z,7.70
2022-11-30T17:54:18.921Z,7.70
2022-11-30T17:56:46.134Z,7.60
2022-11-30T17:59:13.327Z,7.60
2022-11-30T18:01:40.602Z,7.70
2022-11-30T18:04:08.726Z,7.70
2022-11-30T18:06:35.771Z,7.70
2022-11-30T18:09:02.613Z,7.60
2022-11-30T18:11:29.585Z,7.70
2022-11-30T18:13:59.792Z,7.70
2022-11-30T18:16:30.250Z,7.70
2022-11-30T18:18:58.826Z,7.60
2022-11-30T18:21:29.800Z,7.60
2022-11-30T18:23:58.099Z,7.60
2022-11-30T18:26:26.182Z,7.60
2022-11-30T18:28:55.155Z,7.60
2022-11-30T18:31:22.376Z,7.60
2022-11-30T18:33:53.450Z,7.70
2022-11-30T18:36:20.461Z,7.70
2022-11-30T18:38:47.319Z,7.70
2022-11-30T18:41:14.172Z,7.70
2022-11-30T18:43:41.003Z,7.70
2022-11-30T18:46:10.515Z,7.60
2022-11-30T18:48:39.343Z,7.70
2022-11-30T18:51:14.331Z,7.70
2022-11-30T18:53:42.145Z,7.60
2022-11-30T18:56:09.239Z,7.70
2022-11-30T18:58:39.256Z,7.70
2022-11-30T19:01:08.408Z,7.80
2022-11-30T19:03:36.395Z,7.80
2022-11-30T19:06:07.185Z,7.70
2022-11-30T19:08:34.653Z,7.70
2022-11-30T19:11:07.051Z,7.70
2022-11-30T19:13:35.257Z,7.70
2022-11-30T19:16:11.753Z,7.80
2022-11-30T19:18:38.979Z,7.80
2022-11-30T19:21:10.635Z,7.80
2022-11-30T19:23:38.571Z,7.70
2022-11-30T19:26:07.043Z,7.80
2022-11-30T19:28:35.448Z,7.80
2022-11-30T19:31:14.318Z,7.80
2022-11-30T19:33:42.960Z,7.80
2022-11-30T19:36:14.666Z,7.80
2022-11-30T19:38:41.636Z,7.80
2022-11-30T19:41:10.857Z,7.80
2022-11-30T19:43:37.960Z,7.70
2022-11-30T19:46:12.136Z,7.70
2022-11-30T19:48:39.162Z,7.70
2022-11-30T19:51:10.913Z,7.70
2022-11-30T19:53:43.794Z,7.70
2022-11-30T19:56:13.875Z,7.60
2022-11-30T19:58:41.527Z,7.70
2022-11-30T20:01:19.587Z,7.70
2022-11-30T20:03:46.693Z,7.80
2022-11-30T20:06:13.567Z,7.80
2022-11-30T20:08:41.101Z,7.80
2022-11-30T20:11:13.593Z,7.70
2022-11-30T20:13:40.870Z,7.70
2022-11-30T20:16:16.859Z,7.70
2022-11-30T20:18:48.107Z,7.70
2022-11-30T20:21:20.791Z,7.60
2022-11-30T20:23:48.507Z,7.70
2022-11-30T20:26:35.692Z,7.70
2022-11-30T20:29:04.391Z,7.70
2022-11-30T20:31:33.329Z,7.70
2022-11-30T20:34:00.586Z,7.60
2022-11-30T20:36:28.050Z,7.70
2022-11-30T20:38:55.120Z,7.70
2022-11-30T20:41:24.441Z,7.70
2022-11-30T20:43:51.989Z,7.70
2022-11-30T20:46:30.085Z,7.60
2022-11-30T20:48:57.741Z,7.60
2022-11-30T20:51:31.693Z,7.50
2022-11-30T20:54:04.285Z,7.40
2022-11-30T20:56:31.509Z,7.40
2022-11-30T20:59:01.640Z,7.40
2022-11-30T21:01:28.663Z,7.50
2022-11-30T21:03:55.557Z,7.50
2022-11-30T21:06:22.460Z,7.50
2022-11-30T21:08:49.396Z,7.50
2022-11-30T21:11:19.301Z,7.60
2022-11-30T21:13:48.478Z,7.50
2022-11-30T21:16:19.388Z,7.50
2022-11-30T21:18:48.286Z,7.50
2022-11-30T21:21:18.900Z,7.50
2022-11-30T21:23:47.272Z,7.50
2022-11-30T21:26:17.200Z,7.60
2022-11-30T21:28:46.912Z,7.50
2022-11-30T21:31:14.857Z,7.60
2022-11-30T21:33:44.542Z,7.60
2022-11-30T21:36:17.300Z,7.60
2022-11-30T21:38:44.482Z,7.60
2022-11-30T21:41:13.104Z,7.60
2022-11-30T21:43:41.171Z,7.50
2022-11-30T21:46:14.574Z,7.50
2022-11-30T21:48:43.676Z,7.50
2022-11-30T21:51:16.730Z,7.40
2022-11-30T21:53:49.672Z,7.40
2022-11-30T21:56:19.145Z,7.50
2022-11-30T21:58:50.361Z,7.50
2022-11-30T22:01:19.816Z,7.50
2022-11-30T22:03:47.051Z,7.40
2022-11-30T22:06:16.098Z,7.40
2022-11-30T22:08:43.213Z,7.40
2022-11-30T22:11:16.421Z,7.40
2022-11-30T22:13:44.164Z,7.50
2022-11-30T22:16:13.753Z,7.40
2022-11-30T22:18:41.031Z,7.50
2022-11-30T22:21:18.798Z,7.30
2022-11-30T22:23:49.152Z,7.30
2022-11-30T22:26:24.947Z,7.30
2022-11-30T22:28:59.563Z,7.30
2022-11-30T22:31:29.594Z,7.30
2022-11-30T22:33:57.759Z,7.30
2022-11-30T22:36:27.428Z,7.30
2022-11-30T22:38:56.738Z,7.30
2022-11-30T22:41:24.862Z,7.40
2022-11-30T22:43:52.328Z,7.40
2022-11-30T22:46:21.565Z,7.40
2022-11-30T22:48:49.082Z,7.40
2022-11-30T22:51:21.862Z,7.50
2022-11-30T22:53:49.349Z,7.60
2022-11-30T22:56:25.205Z,7.60
2022-11-30T22:58:54.691Z,7.60
2022-11-30T23:01:32.599Z,7.70
2022-11-30T23:04:09.256Z,7.70
2022-11-30T23:06:38.660Z,7.60
2022-11-30T23:09:07.673Z,7.60
2022-11-30T23:11:34.658Z,7.50
2022-11-30T23:14:05.439Z,7.50
2022-11-30T23:16:32.372Z,7.50
2022-11-30T23:19:00.509Z,7.50
2022-11-30T23:21:30.958Z,7.60
2022-11-30T23:24:00.895Z,7.60
2022-11-30T23:26:30.626Z,7.60
2022-11-30T23:29:03.611Z,7.60
2022-11-30T23:31:35.592Z,7.60
2022-11-30T23:34:08.731Z,7.60
2022-11-30T23:36:36.456Z,7.50
2022-11-30T23:39:07.252Z,7.50
2022-11-30T23:41:34.154Z,7.50
2022-11-30T23:44:01.595Z,7.50
2022-11-30T23:46:28.831Z,7.40
2022-11-30T23:48:58.855Z,7.40
2022-11-30T23:51:26.370Z,7.50
2022-11-30T23:53:53.730Z,7.50
2022-11-30T23:56:22.797Z,7.50
2022-11-30T23:58:49.961Z,7.50
